sensor_id;sensor_type;location;lat;lon;timestamp;temperature;humidity
29341;DHT22;16337;59.536;13.468;2023-01-25T00:00:24;5.70;99.90
29341;DHT22;16337;59.536;13.468;2023-01-25T00:02:50;5.70;99.90
29341;DHT22;16337;59.536;13.468;2023-01-25T00:05:16;5.70;99.90
29341;DHT22;16337;59.536;13.468;2023-01-25T00:07:41;5.80;99.90
29341;DHT22;16337;59.536;13.468;2023-01-25T00:10:08;5.80;99.90
29341;DHT22;16337;59.536;13.468;2023-01-25T00:12:34;5.80;99.90
29341;DHT22;16337;59.536;13.468;2023-01-25T00:14:59;5.80;99.90
29341;DHT22;16337;59.536;13.468;2023-01-25T00:17:25;5.90;99.90
29341;DHT22;16337;59.536;13.468;2023-01-25T00:19:51;6.00;99.90
29341;DHT22;16337;59.536;13.468;2023-01-25T00:22:17;6.00;99.90
29341;DHT22;16337;59.536;13.468;2023-01-25T00:24:42;5.90;99.90
29341;DHT22;16337;59.536;13.468;2023-01-25T00:27:08;6.00;99.90
29341;DHT22;16337;59.536;13.468;2023-01-25T00:29:34;6.00;99.90
29341;DHT22;16337;59.536;13.468;2023-01-25T00:32:02;6.00;99.90
29341;DHT22;16337;59.536;13.468;2023-01-25T00:34:48;6.00;99.90
29341;DHT22;16337;59.536;13.468;2023-01-25T00:37:24;6.00;99.90
29341;DHT22;16337;59.536;13.468;2023-01-25T00:39:52;6.00;99.90
29341;DHT22;16337;59.536;13.468;2023-01-25T00:42:19;6.00;99.90
29341;DHT22;16337;59.536;13.468;2023-01-25T00:44:46;5.90;99.90
29341;DHT22;16337;59.536;13.468;2023-01-25T00:47:12;5.90;99.90
29341;DHT22;16337;59.536;13.468;2023-01-25T00:49:39;5.90;99.90
29341;DHT22;16337;59.536;13.468;2023-01-25T00:52:06;5.90;99.90
29341;DHT22;16337;59.536;13.468;2023-01-25T00:54:32;5.90;99.90
29341;DHT22;16337;59.536;13.468;2023-01-25T00:56:58;5.80;99.90
29341;DHT22;16337;59.536;13.468;2023-01-25T00:59:24;5.80;99.90
29341;DHT22;16337;59.536;13.468;2023-01-25T01:01:51;5.70;99.90
29341;DHT22;16337;59.536;13.468;2023-01-25T01:04:17;5.80;99.90
29341;DHT22;16337;59.536;13.468;2023-01-25T01:06:43;5.80;99.90
29341;DHT22;16337;59.536;13.468;2023-01-25T01:09:15;5.80;99.90
29341;DHT22;16337;59.536;13.468;2023-01-25T01:11:41;5.80;99.90
29341;DHT22;16337;59.536;13.468;2023-01-25T01:14:07;5.80;99.90
29341;DHT22;16337;59.536;13.468;2023-01-25T01:16:33;5.80;99.90
29341;DHT22;16337;59.536;13.468;2023-01-25T01:18:59;5.80;99.90
29341;DHT22;16337;59.536;13.468;2023-01-25T01:21:25;5.80;99.90
29341;DHT22;16337;59.536;13.468;2023-01-25T01:23:53;5.80;99.90
29341;DHT22;16337;59.536;13.468;2023-01-25T01:26:18;5.90;99.90
29341;DHT22;16337;59.536;13.468;2023-01-25T01:28:44;5.90;99.90
29341;DHT22;16337;59.536;13.468;2023-01-25T01:31:13;5.90;99.90
29341;DHT22;16337;59.536;13.468;2023-01-25T01:33:39;5.90;99.90
29341;DHT22;16337;59.536;13.468;2023-01-25T01:36:14;5.80;99.90
29341;DHT22;16337;59.536;13.468;2023-01-25T01:38:43;5.90;99.90
29341;DHT22;16337;59.536;13.468;2023-01-25T01:41:10;5.90;99.90
29341;DHT22;16337;59.536;13.468;2023-01-25T01:43:39;5.90;99.90
29341;DHT22;16337;59.536;13.468;2023-01-25T01:46:12;5.80;99.90
29341;DHT22;16337;59.536;13.468;2023-01-25T01:51:22;5.80;99.90
29341;DHT22;16337;59.536;13.468;2023-01-25T01:56:37;5.80;99.90
29341;DHT22;16337;59.536;13.468;2023-01-25T01:59:04;5.90;99.90
29341;DHT22;16337;59.536;13.468;2023-01-25T02:01:34;6.00;99.90
29341;DHT22;16337;59.536;13.468;2023-01-25T02:04:01;6.00;99.90
29341;DHT22;16337;59.536;13.468;2023-01-25T02:09:31;6.00;99.90
29341;DHT22;16337;59.536;13.468;2023-01-25T02:11:58;6.10;99.90
29341;DHT22;16337;59.536;13.468;2023-01-25T02:14:26;6.00;99.90
29341;DHT22;16337;59.536;13.468;2023-01-25T02:16:53;6.00;99.90
29341;DHT22;16337;59.536;13.468;2023-01-25T02:19:43;6.00;99.90
29341;DHT22;16337;59.536;13.468;2023-01-25T02:22:15;6.10;99.90
29341;DHT22;16337;59.536;13.468;2023-01-25T02:27:52;6.10;99.90
29341;DHT22;16337;59.536;13.468;2023-01-25T02:30:19;6.10;99.90
29341;DHT22;16337;59.536;13.468;2023-01-25T02:32:44;6.00;99.90
29341;DHT22;16337;59.536;13.468;2023-01-25T02:35:18;6.00;99.90
29341;DHT22;16337;59.536;13.468;2023-01-25T02:37:44;6.00;99.90
29341;DHT22;16337;59.536;13.468;2023-01-25T02:40:11;6.00;99.90
29341;DHT22;16337;59.536;13.468;2023-01-25T02:42:36;6.10;99.90
29341;DHT22;16337;59.536;13.468;2023-01-25T02:45:09;6.10;99.90
29341;DHT22;16337;59.536;13.468;2023-01-25T02:47:35;6.10;99.90
29341;DHT22;16337;59.536;13.468;2023-01-25T02:50:02;6.10;99.90
29341;DHT22;16337;59.536;13.468;2023-01-25T02:52:28;6.00;99.90
29341;DHT22;16337;59.536;13.468;2023-01-25T02:54:53;6.00;99.90
29341;DHT22;16337;59.536;13.468;2023-01-25T02:57:19;6.10;99.90
29341;DHT22;16337;59.536;13.468;2023-01-25T02:59:45;6.10;99.90
29341;DHT22;16337;59.536;13.468;2023-01-25T03:02:10;6.00;99.90
29341;DHT22;16337;59.536;13.468;2023-01-25T03:04:36;6.10;99.90
29341;DHT22;16337;59.536;13.468;2023-01-25T03:07:02;6.10;99.90
29341;DHT22;16337;59.536;13.468;2023-01-25T03:09:28;6.10;99.90
29341;DHT22;16337;59.536;13.468;2023-01-25T03:11:54;6.00;99.90
29341;DHT22;16337;59.536;13.468;2023-01-25T03:14:19;6.00;99.90
29341;DHT22;16337;59.536;13.468;2023-01-25T03:16:45;6.10;99.90
29341;DHT22;16337;59.536;13.468;2023-01-25T03:19:11;6.00;99.90
29341;DHT22;16337;59.536;13.468;2023-01-25T03:21:39;6.00;99.90
29341;DHT22;16337;59.536;13.468;2023-01-25T03:24:05;6.00;99.90
29341;DHT22;16337;59.536;13.468;2023-01-25T03:26:31;6.10;99.90
29341;DHT22;16337;59.536;13.468;2023-01-25T03:29:17;6.10;99.90
29341;DHT22;16337;59.536;13.468;2023-01-25T03:31:42;6.10;99.90
29341;DHT22;16337;59.536;13.468;2023-01-25T03:34:08;6.10;99.90
29341;DHT22;16337;59.536;13.468;2023-01-25T03:36:34;6.10;99.90
29341;DHT22;16337;59.536;13.468;2023-01-25T03:38:59;6.10;99.90
29341;DHT22;16337;59.536;13.468;2023-01-25T03:41:25;6.10;99.90
29341;DHT22;16337;59.536;13.468;2023-01-25T03:43:51;6.10;99.90
29341;DHT22;16337;59.536;13.468;2023-01-25T03:46:16;6.10;99.90
29341;DHT22;16337;59.536;13.468;2023-01-25T03:48:42;6.10;99.90
29341;DHT22;16337;59.536;13.468;2023-01-25T03:51:08;6.00;99.90
29341;DHT22;16337;59.536;13.468;2023-01-25T03:53:34;6.00;99.90
29341;DHT22;16337;59.536;13.468;2023-01-25T03:56:03;6.00;99.90
29341;DHT22;16337;59.536;13.468;2023-01-25T03:58:29;6.00;99.90
29341;DHT22;16337;59.536;13.468;2023-01-25T04:00:57;6.00;99.90
29341;DHT22;16337;59.536;13.468;2023-01-25T04:03:23;6.00;99.90
29341;DHT22;16337;59.536;13.468;2023-01-25T04:05:50;6.00;99.90
29341;DHT22;16337;59.536;13.468;2023-01-25T04:08:16;6.00;99.90
29341;DHT22;16337;59.536;13.468;2023-01-25T04:10:42;6.00;99.90
29341;DHT22;16337;59.536;13.468;2023-01-25T04:13:08;6.00;99.90
29341;DHT22;16337;59.536;13.468;2023-01-25T04:15:34;6.00;99.90
29341;DHT22;16337;59.536;13.468;2023-01-25T04:18:00;6.00;99.90
29341;DHT22;16337;59.536;13.468;2023-01-25T04:20:26;6.00;99.90
29341;DHT22;16337;59.536;13.468;2023-01-25T04:22:51;5.90;99.90
29341;DHT22;16337;59.536;13.468;2023-01-25T04:25:17;5.90;99.90
29341;DHT22;16337;59.536;13.468;2023-01-25T04:27:43;5.90;99.90
29341;DHT22;16337;59.536;13.468;2023-01-25T04:30:09;5.90;99.90
29341;DHT22;16337;59.536;13.468;2023-01-25T04:32:35;5.90;99.90
29341;DHT22;16337;59.536;13.468;2023-01-25T04:35:01;5.90;99.90
29341;DHT22;16337;59.536;13.468;2023-01-25T04:37:27;5.90;99.90
29341;DHT22;16337;59.536;13.468;2023-01-25T04:39:52;5.90;99.90
29341;DHT22;16337;59.536;13.468;2023-01-25T04:42:18;5.90;99.90
29341;DHT22;16337;59.536;13.468;2023-01-25T04:44:44;6.00;99.90
29341;DHT22;16337;59.536;13.468;2023-01-25T04:47:10;6.00;99.90
29341;DHT22;16337;59.536;13.468;2023-01-25T04:49:35;6.00;99.90
29341;DHT22;16337;59.536;13.468;2023-01-25T04:52:01;6.00;99.90
29341;DHT22;16337;59.536;13.468;2023-01-25T04:54:27;6.00;99.90
29341;DHT22;16337;59.536;13.468;2023-01-25T04:56:52;6.00;99.90
29341;DHT22;16337;59.536;13.468;2023-01-25T04:59:18;6.00;99.90
29341;DHT22;16337;59.536;13.468;2023-01-25T05:01:44;5.90;99.90
29341;DHT22;16337;59.536;13.468;2023-01-25T05:04:09;6.00;99.90
29341;DHT22;16337;59.536;13.468;2023-01-25T05:06:35;6.00;99.90
29341;DHT22;16337;59.536;13.468;2023-01-25T05:09:01;6.00;99.90
29341;DHT22;16337;59.536;13.468;2023-01-25T05:11:27;6.10;99.90
29341;DHT22;16337;59.536;13.468;2023-01-25T05:13:52;6.00;99.90
29341;DHT22;16337;59.536;13.468;2023-01-25T05:16:19;6.10;99.90
29341;DHT22;16337;59.536;13.468;2023-01-25T05:18:45;6.10;99.90
29341;DHT22;16337;59.536;13.468;2023-01-25T05:21:10;6.10;99.90
29341;DHT22;16337;59.536;13.468;2023-01-25T05:23:56;6.20;99.90
29341;DHT22;16337;59.536;13.468;2023-01-25T05:26:22;6.20;99.90
29341;DHT22;16337;59.536;13.468;2023-01-25T05:29:08;6.20;99.90
29341;DHT22;16337;59.536;13.468;2023-01-25T05:31:34;6.10;99.90
29341;DHT22;16337;59.536;13.468;2023-01-25T05:33:59;6.10;99.90
29341;DHT22;16337;59.536;13.468;2023-01-25T05:36:25;6.10;99.90
29341;DHT22;16337;59.536;13.468;2023-01-25T05:38:51;6.10;99.90
29341;DHT22;16337;59.536;13.468;2023-01-25T05:41:17;6.20;99.90
29341;DHT22;16337;59.536;13.468;2023-01-25T05:43:43;6.20;99.90
29341;DHT22;16337;59.536;13.468;2023-01-25T05:46:11;6.20;99.90
29341;DHT22;16337;59.536;13.468;2023-01-25T05:48:56;6.20;99.90
29341;DHT22;16337;59.536;13.468;2023-01-25T05:51:40;6.20;99.90
29341;DHT22;16337;59.536;13.468;2023-01-25T05:54:25;6.20;99.90
29341;DHT22;16337;59.536;13.468;2023-01-25T05:57:09;6.20;99.90
29341;DHT22;16337;59.536;13.468;2023-01-25T05:59:54;6.20;99.90
29341;DHT22;16337;59.536;13.468;2023-01-25T06:02:38;6.20;99.90
29341;DHT22;16337;59.536;13.468;2023-01-25T06:05:22;6.30;99.90
29341;DHT22;16337;59.536;13.468;2023-01-25T06:08:06;6.30;99.90
29341;DHT22;16337;59.536;13.468;2023-01-25T06:10:55;6.30;99.90
29341;DHT22;16337;59.536;13.468;2023-01-25T06:13:40;6.30;99.90
29341;DHT22;16337;59.536;13.468;2023-01-25T06:16:24;6.30;99.90
29341;DHT22;16337;59.536;13.468;2023-01-25T06:19:11;6.30;99.90
29341;DHT22;16337;59.536;13.468;2023-01-25T06:21:55;6.20;99.90
29341;DHT22;16337;59.536;13.468;2023-01-25T06:24:39;6.20;99.90
29341;DHT22;16337;59.536;13.468;2023-01-25T06:27:24;6.30;99.90
29341;DHT22;16337;59.536;13.468;2023-01-25T06:29:49;6.40;99.90
29341;DHT22;16337;59.536;13.468;2023-01-25T06:32:15;6.40;99.90
29341;DHT22;16337;59.536;13.468;2023-01-25T06:34:41;6.40;99.90
29341;DHT22;16337;59.536;13.468;2023-01-25T06:37:07;6.40;99.90
29341;DHT22;16337;59.536;13.468;2023-01-25T06:39:32;6.30;99.90
29341;DHT22;16337;59.536;13.468;2023-01-25T06:41:58;6.40;99.90
29341;DHT22;16337;59.536;13.468;2023-01-25T06:44:24;6.40;99.90
29341;DHT22;16337;59.536;13.468;2023-01-25T06:46:49;6.30;99.90
29341;DHT22;16337;59.536;13.468;2023-01-25T06:49:15;6.30;99.90
29341;DHT22;16337;59.536;13.468;2023-01-25T06:51:41;6.30;99.90
29341;DHT22;16337;59.536;13.468;2023-01-25T06:54:06;6.30;99.90
29341;DHT22;16337;59.536;13.468;2023-01-25T06:56:32;6.40;99.90
29341;DHT22;16337;59.536;13.468;2023-01-25T06:58:58;6.40;99.90
29341;DHT22;16337;59.536;13.468;2023-01-25T07:01:24;6.40;99.90
29341;DHT22;16337;59.536;13.468;2023-01-25T07:03:56;6.30;99.90
29341;DHT22;16337;59.536;13.468;2023-01-25T07:06:23;6.30;99.90
29341;DHT22;16337;59.536;13.468;2023-01-25T07:08:49;6.30;99.90
29341;DHT22;16337;59.536;13.468;2023-01-25T07:11:16;6.30;99.90
29341;DHT22;16337;59.536;13.468;2023-01-25T07:13:44;6.30;99.90
29341;DHT22;16337;59.536;13.468;2023-01-25T07:16:18;6.30;99.90
29341;DHT22;16337;59.536;13.468;2023-01-25T07:18:44;6.30;99.90
29341;DHT22;16337;59.536;13.468;2023-01-25T07:21:15;6.30;99.90
29341;DHT22;16337;59.536;13.468;2023-01-25T07:23:41;6.30;99.90
29341;DHT22;16337;59.536;13.468;2023-01-25T07:26:15;6.30;99.90
29341;DHT22;16337;59.536;13.468;2023-01-25T07:28:42;6.20;99.90
29341;DHT22;16337;59.536;13.468;2023-01-25T07:31:08;6.30;99.90
29341;DHT22;16337;59.536;13.468;2023-01-25T07:33:34;6.30;99.90
29341;DHT22;16337;59.536;13.468;2023-01-25T07:36:03;6.30;99.90
29341;DHT22;16337;59.536;13.468;2023-01-25T07:38:30;6.30;99.90
29341;DHT22;16337;59.536;13.468;2023-01-25T07:40:55;6.20;99.90
29341;DHT22;16337;59.536;13.468;2023-01-25T07:43:22;6.20;99.90
29341;DHT22;16337;59.536;13.468;2023-01-25T07:45:47;6.20;99.90
29341;DHT22;16337;59.536;13.468;2023-01-25T07:48:15;6.20;99.90
29341;DHT22;16337;59.536;13.468;2023-01-25T07:50:41;6.20;99.90
29341;DHT22;16337;59.536;13.468;2023-01-25T07:53:07;6.20;99.90
29341;DHT22;16337;59.536;13.468;2023-01-25T07:55:33;6.20;99.90
29341;DHT22;16337;59.536;13.468;2023-01-25T07:57:59;6.20;99.90
29341;DHT22;16337;59.536;13.468;2023-01-25T08:00:25;6.20;99.90
29341;DHT22;16337;59.536;13.468;2023-01-25T08:02:52;6.20;99.90
29341;DHT22;16337;59.536;13.468;2023-01-25T08:05:18;6.20;99.90
29341;DHT22;16337;59.536;13.468;2023-01-25T08:07:45;6.30;99.90
29341;DHT22;16337;59.536;13.468;2023-01-25T08:10:10;6.30;99.90
29341;DHT22;16337;59.536;13.468;2023-01-25T08:12:36;6.30;99.90
29341;DHT22;16337;59.536;13.468;2023-01-25T08:15:03;6.30;99.90
29341;DHT22;16337;59.536;13.468;2023-01-25T08:17:29;6.30;99.90
29341;DHT22;16337;59.536;13.468;2023-01-25T08:19:59;6.30;99.90
29341;DHT22;16337;59.536;13.468;2023-01-25T08:22:26;6.20;99.90
29341;DHT22;16337;59.536;13.468;2023-01-25T08:24:53;6.20;99.90
29341;DHT22;16337;59.536;13.468;2023-01-25T08:27:19;6.20;99.90
29341;DHT22;16337;59.536;13.468;2023-01-25T08:29:46;6.20;99.90
29341;DHT22;16337;59.536;13.468;2023-01-25T08:32:12;6.30;99.90
29341;DHT22;16337;59.536;13.468;2023-01-25T08:34:37;6.30;99.90
29341;DHT22;16337;59.536;13.468;2023-01-25T08:37:05;6.30;99.90
29341;DHT22;16337;59.536;13.468;2023-01-25T08:39:31;6.30;99.90
29341;DHT22;16337;59.536;13.468;2023-01-25T08:41:56;6.30;99.90
29341;DHT22;16337;59.536;13.468;2023-01-25T08:44:22;6.20;99.90
29341;DHT22;16337;59.536;13.468;2023-01-25T08:46:50;6.20;99.90
29341;DHT22;16337;59.536;13.468;2023-01-25T08:49:16;6.20;99.90
29341;DHT22;16337;59.536;13.468;2023-01-25T08:51:42;6.20;99.90
29341;DHT22;16337;59.536;13.468;2023-01-25T08:54:11;6.30;99.90
29341;DHT22;16337;59.536;13.468;2023-01-25T08:56:38;6.30;99.90
29341;DHT22;16337;59.536;13.468;2023-01-25T08:59:04;6.30;99.90
29341;DHT22;16337;59.536;13.468;2023-01-25T09:01:30;6.30;99.90
29341;DHT22;16337;59.536;13.468;2023-01-25T09:03:56;6.30;99.90
29341;DHT22;16337;59.536;13.468;2023-01-25T09:06:22;6.30;99.90
29341;DHT22;16337;59.536;13.468;2023-01-25T09:08:48;6.30;99.90
29341;DHT22;16337;59.536;13.468;2023-01-25T09:11:19;6.30;99.90
29341;DHT22;16337;59.536;13.468;2023-01-25T09:13:46;6.40;99.90
29341;DHT22;16337;59.536;13.468;2023-01-25T09:16:19;6.40;99.90
29341;DHT22;16337;59.536;13.468;2023-01-25T09:18:51;6.40;99.90
29341;DHT22;16337;59.536;13.468;2023-01-25T09:21:18;6.40;99.90
29341;DHT22;16337;59.536;13.468;2023-01-25T09:23:46;6.40;99.90
29341;DHT22;16337;59.536;13.468;2023-01-25T09:26:13;6.50;99.90
29341;DHT22;16337;59.536;13.468;2023-01-25T09:28:40;6.50;99.90
29341;DHT22;16337;59.536;13.468;2023-01-25T09:31:07;6.50;99.90
29341;DHT22;16337;59.536;13.468;2023-01-25T09:33:35;6.60;99.90
29341;DHT22;16337;59.536;13.468;2023-01-25T09:36:01;6.50;99.90
29341;DHT22;16337;59.536;13.468;2023-01-25T09:38:27;6.50;99.90
29341;DHT22;16337;59.536;13.468;2023-01-25T09:49:03;6.50;99.90
29341;DHT22;16337;59.536;13.468;2023-01-25T09:54:25;6.50;99.90
29341;DHT22;16337;59.536;13.468;2023-01-25T09:56:53;6.60;99.90
29341;DHT22;16337;59.536;13.468;2023-01-25T09:59:22;6.50;99.90
29341;DHT22;16337;59.536;13.468;2023-01-25T10:04:29;6.50;99.90
29341;DHT22;16337;59.536;13.468;2023-01-25T10:07:13;6.50;99.90
29341;DHT22;16337;59.536;13.468;2023-01-25T10:10:05;6.50;99.90
29341;DHT22;16337;59.536;13.468;2023-01-25T10:12:36;6.50;99.90
29341;DHT22;16337;59.536;13.468;2023-01-25T10:15:20;6.50;99.90
29341;DHT22;16337;59.536;13.468;2023-01-25T10:17:55;6.50;99.90
29341;DHT22;16337;59.536;13.468;2023-01-25T10:20:42;6.50;99.90
29341;DHT22;16337;59.536;13.468;2023-01-25T10:26:00;6.50;99.90
29341;DHT22;16337;59.536;13.468;2023-01-25T10:31:25;6.50;99.90
29341;DHT22;16337;59.536;13.468;2023-01-25T10:33:53;6.50;99.90
29341;DHT22;16337;59.536;13.468;2023-01-25T10:36:28;6.40;99.90
29341;DHT22;16337;59.536;13.468;2023-01-25T10:38:55;6.40;99.90
29341;DHT22;16337;59.536;13.468;2023-01-25T10:41:40;6.40;99.90
29341;DHT22;16337;59.536;13.468;2023-01-25T10:44:11;6.40;99.90
29341;DHT22;16337;59.536;13.468;2023-01-25T10:47:14;6.40;99.90
29341;DHT22;16337;59.536;13.468;2023-01-25T10:49:47;6.40;99.90
29341;DHT22;16337;59.536;13.468;2023-01-25T10:52:30;6.40;99.90
29341;DHT22;16337;59.536;13.468;2023-01-25T10:55:18;6.50;99.90
29341;DHT22;16337;59.536;13.468;2023-01-25T10:57:50;6.50;99.90
29341;DHT22;16337;59.536;13.468;2023-01-25T11:00:29;6.40;99.90
29341;DHT22;16337;59.536;13.468;2023-01-25T11:02:55;6.50;99.90
29341;DHT22;16337;59.536;13.468;2023-01-25T11:05:31;6.50;99.90
29341;DHT22;16337;59.536;13.468;2023-01-25T11:07:57;6.50;99.90
29341;DHT22;16337;59.536;13.468;2023-01-25T11:10:35;6.40;99.90
29341;DHT22;16337;59.536;13.468;2023-01-25T11:15:46;6.50;99.90
29341;DHT22;16337;59.536;13.468;2023-01-25T11:18:23;6.50;99.90
29341;DHT22;16337;59.536;13.468;2023-01-25T11:23:37;6.50;99.90
29341;DHT22;16337;59.536;13.468;2023-01-25T11:26:16;6.50;99.90
29341;DHT22;16337;59.536;13.468;2023-01-25T11:28:42;6.60;99.90
29341;DHT22;16337;59.536;13.468;2023-01-25T11:31:13;6.60;99.90
29341;DHT22;16337;59.536;13.468;2023-01-25T11:33:40;6.60;99.90
29341;DHT22;16337;59.536;13.468;2023-01-25T11:38:35;6.60;99.90
29341;DHT22;16337;59.536;13.468;2023-01-25T11:41:31;6.50;99.90
29341;DHT22;16337;59.536;13.468;2023-01-25T11:50:14;6.50;99.90
29341;DHT22;16337;59.536;13.468;2023-01-25T11:55:29;6.50;99.90
29341;DHT22;16337;59.536;13.468;2023-01-25T12:09:24;6.50;99.90
29341;DHT22;16337;59.536;13.468;2023-01-25T12:23:16;6.60;99.90
29341;DHT22;16337;59.536;13.468;2023-01-25T12:26:00;6.60;99.90
29341;DHT22;16337;59.536;13.468;2023-01-25T12:28:49;6.60;99.90
29341;DHT22;16337;59.536;13.468;2023-01-25T12:34:21;6.60;99.90
29341;DHT22;16337;59.536;13.468;2023-01-25T12:36:49;6.60;99.90
29341;DHT22;16337;59.536;13.468;2023-01-25T12:39:26;6.60;99.90
29341;DHT22;16337;59.536;13.468;2023-01-25T12:45:10;6.70;99.90
29341;DHT22;16337;59.536;13.468;2023-01-25T12:47:44;6.70;99.90
29341;DHT22;16337;59.536;13.468;2023-01-25T12:50:34;6.70;99.90
29341;DHT22;16337;59.536;13.468;2023-01-25T12:53:12;6.70;99.90
29341;DHT22;16337;59.536;13.468;2023-01-25T12:55:42;6.70;99.90
29341;DHT22;16337;59.536;13.468;2023-01-25T12:58:23;6.80;99.90
29341;DHT22;16337;59.536;13.468;2023-01-25T13:01:21;6.80;99.90
29341;DHT22;16337;59.536;13.468;2023-01-25T13:09:17;6.70;99.90
29341;DHT22;16337;59.536;13.468;2023-01-25T13:11:46;6.70;99.90
29341;DHT22;16337;59.536;13.468;2023-01-25T13:16:53;6.70;99.90
29341;DHT22;16337;59.536;13.468;2023-01-25T13:21:58;6.70;99.90
29341;DHT22;16337;59.536;13.468;2023-01-25T13:24:31;6.60;99.90
29341;DHT22;16337;59.536;13.468;2023-01-25T13:27:09;6.60;99.90
29341;DHT22;16337;59.536;13.468;2023-01-25T13:29:54;6.60;99.90
29341;DHT22;16337;59.536;13.468;2023-01-25T13:37:21;6.60;99.90
29341;DHT22;16337;59.536;13.468;2023-01-25T13:42:29;6.60;99.90
29341;DHT22;16337;59.536;13.468;2023-01-25T13:45:17;6.50;99.90
29341;DHT22;16337;59.536;13.468;2023-01-25T13:48:17;6.50;99.90
29341;DHT22;16337;59.536;13.468;2023-01-25T13:51:07;6.50;99.90
29341;DHT22;16337;59.536;13.468;2023-01-25T13:53:34;6.50;99.90
29341;DHT22;16337;59.536;13.468;2023-01-25T13:56:04;6.50;99.90
29341;DHT22;16337;59.536;13.468;2023-01-25T13:58:35;6.50;99.90
29341;DHT22;16337;59.536;13.468;2023-01-25T14:01:04;6.50;99.90
29341;DHT22;16337;59.536;13.468;2023-01-25T14:03:41;6.50;99.90
29341;DHT22;16337;59.536;13.468;2023-01-25T14:06:25;6.50;99.90
29341;DHT22;16337;59.536;13.468;2023-01-25T14:08:55;6.50;99.90
29341;DHT22;16337;59.536;13.468;2023-01-25T14:11:24;6.50;99.90
29341;DHT22;16337;59.536;13.468;2023-01-25T14:13:55;6.40;99.90
29341;DHT22;16337;59.536;13.468;2023-01-25T14:16:21;6.40;99.90
29341;DHT22;16337;59.536;13.468;2023-01-25T14:18:47;6.40;99.90
29341;DHT22;16337;59.536;13.468;2023-01-25T14:21:22;6.40;99.90
29341;DHT22;16337;59.536;13.468;2023-01-25T14:23:49;6.40;99.90
29341;DHT22;16337;59.536;13.468;2023-01-25T14:26:26;6.30;99.90
29341;DHT22;16337;59.536;13.468;2023-01-25T14:28:55;6.30;99.90
29341;DHT22;16337;59.536;13.468;2023-01-25T14:31:33;6.20;99.90
29341;DHT22;16337;59.536;13.468;2023-01-25T14:33:59;6.30;99.90
29341;DHT22;16337;59.536;13.468;2023-01-25T14:36:30;6.30;99.90
29341;DHT22;16337;59.536;13.468;2023-01-25T14:38:57;6.30;99.90
29341;DHT22;16337;59.536;13.468;2023-01-25T14:41:36;6.30;99.90
29341;DHT22;16337;59.536;13.468;2023-01-25T14:44:13;6.30;99.90
29341;DHT22;16337;59.536;13.468;2023-01-25T14:46:40;6.40;99.90
29341;DHT22;16337;59.536;13.468;2023-01-25T14:49:19;6.40;99.90
29341;DHT22;16337;59.536;13.468;2023-01-25T14:52:10;6.50;99.90
29341;DHT22;16337;59.536;13.468;2023-01-25T14:54:51;6.50;99.90
29341;DHT22;16337;59.536;13.468;2023-01-25T14:57:28;6.60;99.90
29341;DHT22;16337;59.536;13.468;2023-01-25T14:59:55;6.60;99.90
29341;DHT22;16337;59.536;13.468;2023-01-25T15:02:38;6.50;99.90
29341;DHT22;16337;59.536;13.468;2023-01-25T15:07:52;6.50;99.90
29341;DHT22;16337;59.536;13.468;2023-01-25T15:10:22;6.50;99.90
29341;DHT22;16337;59.536;13.468;2023-01-25T15:13:20;6.60;99.90
29341;DHT22;16337;59.536;13.468;2023-01-25T15:18:58;6.70;99.90
29341;DHT22;16337;59.536;13.468;2023-01-25T15:21:24;6.70;99.90
29341;DHT22;16337;59.536;13.468;2023-01-25T15:23:51;6.70;99.90
29341;DHT22;16337;59.536;13.468;2023-01-25T15:26:23;6.70;99.90
29341;DHT22;16337;59.536;13.468;2023-01-25T15:28:51;6.70;99.90
29341;DHT22;16337;59.536;13.468;2023-01-25T15:31:36;6.70;99.90
29341;DHT22;16337;59.536;13.468;2023-01-25T15:34:02;6.70;99.90
29341;DHT22;16337;59.536;13.468;2023-01-25T15:36:29;6.70;99.90
29341;DHT22;16337;59.536;13.468;2023-01-25T15:38:55;6.70;99.90
29341;DHT22;16337;59.536;13.468;2023-01-25T15:41:21;6.70;99.90
29341;DHT22;16337;59.536;13.468;2023-01-25T15:43:48;6.80;99.90
29341;DHT22;16337;59.536;13.468;2023-01-25T15:46:20;6.70;99.90
29341;DHT22;16337;59.536;13.468;2023-01-25T15:48:48;6.80;99.90
29341;DHT22;16337;59.536;13.468;2023-01-25T15:51:14;6.80;99.90
29341;DHT22;16337;59.536;13.468;2023-01-25T15:53:41;6.90;99.90
29341;DHT22;16337;59.536;13.468;2023-01-25T15:58:37;6.90;99.90
29341;DHT22;16337;59.536;13.468;2023-01-25T16:01:03;6.90;99.90
29341;DHT22;16337;59.536;13.468;2023-01-25T16:03:29;6.90;99.90
29341;DHT22;16337;59.536;13.468;2023-01-25T16:06:05;6.90;99.90
29341;DHT22;16337;59.536;13.468;2023-01-25T16:08:32;6.90;99.90
29341;DHT22;16337;59.536;13.468;2023-01-25T16:10:58;6.90;99.90
29341;DHT22;16337;59.536;13.468;2023-01-25T16:13:23;6.90;99.90
29341;DHT22;16337;59.536;13.468;2023-01-25T16:15:55;6.80;99.90
29341;DHT22;16337;59.536;13.468;2023-01-25T16:18:21;6.80;99.90
29341;DHT22;16337;59.536;13.468;2023-01-25T16:20:47;6.80;99.90
29341;DHT22;16337;59.536;13.468;2023-01-25T16:23:12;6.80;99.90
29341;DHT22;16337;59.536;13.468;2023-01-25T16:25:40;6.80;99.90
29341;DHT22;16337;59.536;13.468;2023-01-25T16:28:14;6.80;99.90
29341;DHT22;16337;59.536;13.468;2023-01-25T16:30:40;6.80;99.90
29341;DHT22;16337;59.536;13.468;2023-01-25T16:33:06;6.80;99.90
29341;DHT22;16337;59.536;13.468;2023-01-25T16:35:32;6.80;99.90
29341;DHT22;16337;59.536;13.468;2023-01-25T16:37:57;6.80;99.90
29341;DHT22;16337;59.536;13.468;2023-01-25T16:40:26;6.80;99.90
29341;DHT22;16337;59.536;13.468;2023-01-25T16:42:55;6.80;99.90
29341;DHT22;16337;59.536;13.468;2023-01-25T16:45:21;6.70;99.90
29341;DHT22;16337;59.536;13.468;2023-01-25T16:47:49;6.80;99.90
29341;DHT22;16337;59.536;13.468;2023-01-25T16:50:17;6.80;99.90
29341;DHT22;16337;59.536;13.468;2023-01-25T16:52:43;6.80;99.90
29341;DHT22;16337;59.536;13.468;2023-01-25T16:55:11;6.80;99.90
29341;DHT22;16337;59.536;13.468;2023-01-25T16:57:38;6.80;99.90
29341;DHT22;16337;59.536;13.468;2023-01-25T17:00:06;6.80;99.90
29341;DHT22;16337;59.536;13.468;2023-01-25T17:02:35;6.80;99.90
29341;DHT22;16337;59.536;13.468;2023-01-25T17:05:01;6.80;99.90
29341;DHT22;16337;59.536;13.468;2023-01-25T17:07:26;6.80;99.90
29341;DHT22;16337;59.536;13.468;2023-01-25T17:09:52;6.80;99.90
29341;DHT22;16337;59.536;13.468;2023-01-25T17:12:18;6.70;99.90
29341;DHT22;16337;59.536;13.468;2023-01-25T17:14:44;6.70;99.90
29341;DHT22;16337;59.536;13.468;2023-01-25T17:17:10;6.60;99.90
29341;DHT22;16337;59.536;13.468;2023-01-25T17:19:35;6.60;99.90
29341;DHT22;16337;59.536;13.468;2023-01-25T17:22:01;6.50;99.90
29341;DHT22;16337;59.536;13.468;2023-01-25T17:24:27;6.50;99.90
29341;DHT22;16337;59.536;13.468;2023-01-25T17:26:57;6.40;99.90
29341;DHT22;16337;59.536;13.468;2023-01-25T17:29:23;6.40;99.90